createdAt,value
2017-12-20T00:00:03.329Z,0
2017-12-20T00:01:12.133Z,0
2017-12-20T00:02:21.200Z,0
2017-12-20T00:03:30.001Z,0
2017-12-20T00:04:39.073Z,0
2017-12-20T00:05:47.607Z,0
2017-12-20T00:06:56.194Z,0
2017-12-20T00:08:05.259Z,0
2017-12-20T00:09:13.944Z,0
2017-12-20T00:10:23.015Z,0
2017-12-20T00:11:31.549Z,0
2017-12-20T00:12:40.345Z,0
2017-12-20T00:13:49.147Z,0
2017-12-20T00:14:58.219Z,0
2017-12-20T00:16:06.752Z,0
2017-12-20T00:17:15.553Z,0
2017-12-20T00:18:24.403Z,0
2017-12-20T00:19:33.210Z,0
2017-12-20T00:20:42.276Z,0
2017-12-20T00:21:50.812Z,0
2017-12-20T00:22:59.614Z,0
2017-12-20T00:24:08.412Z,0
2017-12-20T00:25:16.946Z,0
2017-12-20T00:26:25.747Z,0
2017-12-20T00:27:34.544Z,0
2017-12-20T00:28:43.346Z,0
2017-12-20T00:29:52.202Z,0
2017-12-20T00:31:00.738Z,0
2017-12-20T00:32:09.810Z,0
2017-12-20T00:33:18.342Z,0
2017-12-20T00:34:26.874Z,0
2017-12-20T00:35:35.411Z,0
2017-12-20T00:36:44.209Z,0
2017-12-20T00:37:52.742Z,0
2017-12-20T00:39:01.544Z,0
2017-12-20T00:40:10.344Z,0
2017-12-20T00:41:18.929Z,0
2017-12-20T00:42:27.739Z,0
2017-12-20T00:43:37.085Z,0
2017-12-20T00:44:45.883Z,0
2017-12-20T00:45:54.417Z,0
2017-12-20T00:47:02.951Z,0
2017-12-20T00:48:11.752Z,0
2017-12-20T00:49:20.825Z,0
2017-12-20T00:50:29.353Z,0
2017-12-20T00:51:38.417Z,0
2017-12-20T00:52:47.002Z,0
2017-12-20T00:53:55.802Z,0
2017-12-20T00:55:04.337Z,0
2017-12-20T00:56:13.669Z,0
2017-12-20T00:57:22.478Z,0
2017-12-20T00:58:31.546Z,0
2017-12-20T00:59:40.613Z,0
2017-12-20T01:00:49.414Z,0
2017-12-20T01:01:58.748Z,0
2017-12-20T01:03:07.281Z,0
2017-12-20T01:04:16.082Z,0
2017-12-20T01:05:24.880Z,0
2017-12-20T01:06:33.678Z,0
2017-12-20T01:07:42.479Z,0
2017-12-20T01:08:51.812Z,0
2017-12-20T01:10:00.666Z,0
2017-12-20T01:11:09.469Z,0
2017-12-20T01:12:18.272Z,0
2017-12-20T01:13:27.609Z,0
2017-12-20T01:14:36.676Z,0
2017-12-20T01:15:45.743Z,0
2017-12-20T01:16:54.810Z,0
2017-12-20T01:18:03.607Z,0
2017-12-20T01:19:12.407Z,0
2017-12-20T01:20:20.945Z,0
2017-12-20T01:21:29.798Z,0
2017-12-20T01:22:38.334Z,0
2017-12-20T01:23:47.135Z,0
2017-12-20T01:24:55.673Z,0
2017-12-20T01:26:04.205Z,0
2017-12-20T01:27:13.269Z,0
2017-12-20T01:28:22.067Z,0
2017-12-20T01:29:31.139Z,0
2017-12-20T01:30:39.672Z,0
2017-12-20T01:31:48.407Z,0
2017-12-20T01:32:57.472Z,0
2017-12-20T01:34:06.271Z,0
2017-12-20T01:35:14.804Z,0
2017-12-20T01:36:23.335Z,0
2017-12-20T01:37:31.871Z,0
2017-12-20T01:38:41.201Z,0
2017-12-20T01:39:49.735Z,0
2017-12-20T01:40:58.538Z,0
2017-12-20T01:42:07.069Z,0
2017-12-20T01:43:15.870Z,0
2017-12-20T01:44:24.725Z,0
2017-12-20T01:45:33.790Z,0
2017-12-20T01:46:42.325Z,0
2017-12-20T01:47:51.390Z,0
2017-12-20T01:49:00.188Z,0
2017-12-20T01:50:08.989Z,0
2017-12-20T01:51:17.523Z,0
2017-12-20T01:52:26.059Z,0
2017-12-20T01:53:34.863Z,0
2017-12-20T01:54:43.397Z,0
2017-12-20T01:55:51.983Z,0
2017-12-20T01:57:00.786Z,0
2017-12-20T01:58:09.590Z,0
2017-12-20T01:59:18.130Z,0
2017-12-20T02:00:26.660Z,0
2017-12-20T02:01:35.462Z,0
2017-12-20T02:02:44.262Z,0
2017-12-20T02:03:53.339Z,0
2017-12-20T02:05:02.416Z,0
2017-12-20T02:06:11.216Z,0
2017-12-20T02:07:20.017Z,0
2017-12-20T02:08:29.356Z,0
2017-12-20T02:09:38.426Z,0
2017-12-20T02:10:46.971Z,0
2017-12-20T02:11:55.758Z,0
2017-12-20T02:13:05.144Z,0
2017-12-20T02:14:13.679Z,0
2017-12-20T02:15:22.479Z,0
2017-12-20T02:16:31.281Z,0
2017-12-20T02:17:40.614Z,0
2017-12-20T02:18:49.690Z,0
2017-12-20T02:19:58.756Z,0
2017-12-20T02:21:08.092Z,0
2017-12-20T02:22:16.944Z,0
2017-12-20T02:23:25.747Z,0
2017-12-20T02:24:34.331Z,0
2017-12-20T02:25:43.132Z,0
2017-12-20T02:26:51.664Z,0
2017-12-20T02:28:00.196Z,0
2017-12-20T02:29:08.737Z,0
2017-12-20T02:30:18.074Z,0
2017-12-20T02:31:27.140Z,0
2017-12-20T02:32:35.950Z,0
2017-12-20T02:33:44.484Z,0
2017-12-20T02:34:53.566Z,0
2017-12-20T02:36:02.952Z,0
2017-12-20T02:37:11.755Z,0
2017-12-20T02:38:20.554Z,0
2017-12-20T02:39:33.632Z,0
2017-12-20T02:40:42.974Z,0
2017-12-20T02:41:51.776Z,0
2017-12-20T02:43:00.590Z,0
2017-12-20T02:44:09.123Z,0
2017-12-20T02:45:18.196Z,0
2017-12-20T02:46:26.997Z,0
2017-12-20T02:47:35.863Z,0
2017-12-20T02:48:44.722Z,0
2017-12-20T02:49:53.525Z,0
2017-12-20T02:51:02.599Z,0
2017-12-20T02:52:11.399Z,0
2017-12-20T02:53:19.985Z,0
2017-12-20T02:54:28.518Z,0
2017-12-20T02:55:37.052Z,0
2017-12-20T02:56:46.125Z,0
2017-12-20T02:57:54.659Z,0
2017-12-20T02:59:03.727Z,0
2017-12-20T03:00:12.262Z,0
2017-12-20T03:01:21.331Z,0
2017-12-20T03:02:30.134Z,0
2017-12-20T03:03:38.664Z,0
2017-12-20T03:04:47.781Z,0
2017-12-20T03:05:56.316Z,0
2017-12-20T03:07:05.649Z,0
2017-12-20T03:08:14.183Z,0
2017-12-20T03:09:22.982Z,0
2017-12-20T03:10:31.518Z,0
2017-12-20T03:11:40.592Z,0
2017-12-20T03:12:49.663Z,0
2017-12-20T03:13:58.458Z,0
2017-12-20T03:15:07.261Z,0
2017-12-20T03:16:16.111Z,0
2017-12-20T03:17:24.918Z,0
2017-12-20T03:18:33.457Z,0
2017-12-20T03:19:42.257Z,0
2017-12-20T03:20:51.058Z,0
2017-12-20T03:21:59.591Z,0
2017-12-20T03:23:08.391Z,0
2017-12-20T03:24:17.459Z,0
2017-12-20T03:25:26.797Z,0
2017-12-20T03:26:35.332Z,0
2017-12-20T03:27:43.867Z,0
2017-12-20T03:28:52.667Z,0
2017-12-20T03:30:01.201Z,0
2017-12-20T03:31:10.283Z,0
2017-12-20T03:32:18.813Z,0
2017-12-20T03:33:27.396Z,0
2017-12-20T03:34:35.929Z,0
2017-12-20T03:35:44.728Z,0
2017-12-20T03:36:53.262Z,0
2017-12-20T03:38:02.062Z,0
2017-12-20T03:39:11.127Z,0
2017-12-20T03:40:20.203Z,0
2017-12-20T03:41:29.273Z,0
2017-12-20T03:42:38.079Z,0
2017-12-20T03:43:47.410Z,0
2017-12-20T03:44:55.994Z,0
2017-12-20T03:46:04.937Z,0
2017-12-20T03:47:13.735Z,0
2017-12-20T03:48:22.273Z,0
2017-12-20T03:49:30.820Z,0
2017-12-20T03:50:40.150Z,0
2017-12-20T03:51:48.957Z,0
2017-12-20T03:52:57.491Z,0
2017-12-20T03:54:06.558Z,0
2017-12-20T03:55:15.092Z,0
2017-12-20T03:56:24.423Z,0
2017-12-20T03:57:32.957Z,0
2017-12-20T03:58:41.756Z,0
2017-12-20T03:59:50.294Z,0
2017-12-20T04:00:59.362Z,0
2017-12-20T04:02:07.945Z,0
2017-12-20T04:03:16.753Z,0
2017-12-20T04:04:25.553Z,0
2017-12-20T04:05:34.086Z,0
2017-12-20T04:06:42.891Z,0
2017-12-20T04:07:51.695Z,0
2017-12-20T04:09:00.228Z,0
2017-12-20T04:10:09.031Z,0
2017-12-20T04:11:17.564Z,0
2017-12-20T04:12:26.635Z,0
2017-12-20T04:13:35.968Z,0
2017-12-20T04:14:44.766Z,0
2017-12-20T04:15:53.299Z,0
2017-12-20T04:17:02.633Z,0
2017-12-20T04:18:11.436Z,0
2017-12-20T04:19:20.283Z,0
2017-12-20T04:20:29.352Z,0
2017-12-20T04:21:38.703Z,0
2017-12-20T04:22:47.506Z,0
2017-12-20T04:23:56.307Z,0
2017-12-20T04:25:05.107Z,0
2017-12-20T04:26:13.912Z,0
2017-12-20T04:27:22.449Z,0
2017-12-20T04:28:31.245Z,0
2017-12-20T04:29:39.779Z,0
2017-12-20T04:30:49.109Z,0
2017-12-20T04:31:57.919Z,0
2017-12-20T04:33:06.983Z,0
2017-12-20T04:34:15.784Z,0
2017-12-20T04:35:24.588Z,0
2017-12-20T04:36:33.387Z,0
2017-12-20T04:37:41.922Z,0
2017-12-20T04:38:50.721Z,0
2017-12-20T04:39:59.253Z,0
2017-12-20T04:41:08.055Z,0
2017-12-20T04:42:17.122Z,0
2017-12-20T04:43:25.657Z,0
2017-12-20T04:44:34.455Z,0
2017-12-20T04:45:42.989Z,0
2017-12-20T04:46:51.523Z,0
2017-12-20T04:48:00.907Z,0
2017-12-20T04:49:09.710Z,0
2017-12-20T04:50:18.245Z,0
2017-12-20T04:51:27.579Z,0
2017-12-20T04:52:36.910Z,0
2017-12-20T04:53:45.846Z,0
2017-12-20T04:54:54.916Z,0
2017-12-20T04:56:03.457Z,0
2017-12-20T04:57:12.253Z,0
2017-12-20T04:58:21.054Z,0
2017-12-20T04:59:29.916Z,0
2017-12-20T05:00:38.390Z,0
2017-12-20T05:01:46.924Z,0
2017-12-20T05:02:55.783Z,0
2017-12-20T05:04:04.315Z,0
2017-12-20T05:05:12.930Z,0
2017-12-20T05:06:21.706Z,0
2017-12-20T05:07:30.241Z,0
2017-12-20T05:08:39.307Z,0
2017-12-20T05:09:48.108Z,0
2017-12-20T05:10:57.174Z,0
2017-12-20T05:12:05.976Z,0
2017-12-20T05:13:15.310Z,0
2017-12-20T05:14:24.111Z,0
2017-12-20T05:15:32.648Z,0
2017-12-20T05:16:41.235Z,0
2017-12-20T05:17:50.031Z,0
2017-12-20T05:18:59.365Z,0
2017-12-20T05:20:08.169Z,0
2017-12-20T05:21:17.243Z,0
2017-12-20T05:22:26.330Z,0
2017-12-20T05:23:34.864Z,0
2017-12-20T05:24:43.397Z,0
2017-12-20T05:25:52.472Z,0
2017-12-20T05:27:01.546Z,0
2017-12-20T05:28:10.132Z,0
2017-12-20T05:29:19.198Z,0
2017-12-20T05:30:28.265Z,0
2017-12-20T05:31:36.795Z,0
2017-12-20T05:32:45.593Z,0
2017-12-20T05:33:54.925Z,0
2017-12-20T05:35:03.994Z,0
2017-12-20T05:36:12.797Z,0
2017-12-20T05:37:21.861Z,0
2017-12-20T05:38:30.496Z,0
2017-12-20T05:39:39.083Z,0
2017-12-20T05:40:47.885Z,0
2017-12-20T05:41:56.689Z,0
2017-12-20T05:43:05.486Z,0
2017-12-20T05:44:14.024Z,0
2017-12-20T05:45:23.095Z,0
2017-12-20T05:46:31.626Z,0
2017-12-20T05:47:40.693Z,0
2017-12-20T05:48:49.229Z,0
2017-12-20T05:49:57.762Z,0
2017-12-20T05:51:06.562Z,0
2017-12-20T05:52:15.358Z,0
2017-12-20T05:53:24.158Z,0
2017-12-20T05:54:32.694Z,0
2017-12-20T05:55:41.494Z,0
2017-12-20T05:56:50.831Z,0
2017-12-20T05:57:59.361Z,0
2017-12-20T05:59:07.911Z,0
2017-12-20T06:00:16.962Z,0
2017-12-20T06:01:25.500Z,0
2017-12-20T06:02:34.616Z,0
2017-12-20T06:03:43.950Z,0
2017-12-20T06:04:52.751Z,0
2017-12-20T06:06:01.871Z,0
2017-12-20T06:07:10.407Z,0
2017-12-20T06:08:19.152Z,0
2017-12-20T06:09:28.038Z,0
2017-12-20T06:10:36.881Z,0
2017-12-20T06:11:45.999Z,0
2017-12-20T06:12:54.533Z,0
2017-12-20T06:14:03.334Z,0
2017-12-20T06:15:11.870Z,0
2017-12-20T06:16:20.727Z,0
2017-12-20T06:17:29.563Z,0
2017-12-20T06:18:38.365Z,0
2017-12-20T06:19:47.484Z,0
2017-12-20T06:20:56.286Z,0
2017-12-20T06:22:05.089Z,0
2017-12-20T06:23:13.904Z,0
2017-12-20T06:24:22.699Z,0
2017-12-20T06:25:31.819Z,0
2017-12-20T06:26:40.627Z,0
2017-12-20T06:27:49.427Z,0
2017-12-20T06:28:58.241Z,0
2017-12-20T06:30:07.068Z,0
2017-12-20T06:31:16.131Z,0
2017-12-20T06:32:24.669Z,0
2017-12-20T06:33:33.512Z,0
2017-12-20T06:34:42.313Z,0
2017-12-20T06:35:50.848Z,0
2017-12-20T06:36:59.382Z,0
2017-12-20T06:38:07.919Z,0
2017-12-20T06:39:16.452Z,0
2017-12-20T06:40:25.786Z,0
2017-12-20T06:41:34.602Z,0
2017-12-20T06:42:43.184Z,0
2017-12-20T06:43:51.718Z,0
2017-12-20T06:45:00.254Z,0
2017-12-20T06:46:08.784Z,0
2017-12-20T06:47:17.318Z,0
2017-12-20T06:48:25.856Z,0
2017-12-20T06:49:34.660Z,0
2017-12-20T06:50:43.194Z,0
2017-12-20T06:51:51.729Z,0
2017-12-20T06:53:00.535Z,0
2017-12-20T06:54:09.069Z,0
2017-12-20T06:55:18.136Z,0
2017-12-20T06:56:27.205Z,0
2017-12-20T06:57:35.740Z,0
2017-12-20T06:58:44.540Z,0
2017-12-20T06:59:53.366Z,0
2017-12-20T07:01:02.298Z,0
2017-12-20T07:02:11.369Z,0
2017-12-20T07:03:19.904Z,0
2017-12-20T07:04:28.972Z,4
2017-12-20T07:05:37.509Z,0
2017-12-20T07:06:46.041Z,4
2017-12-20T07:07:54.848Z,0
2017-12-20T07:09:03.385Z,4
2017-12-20T07:10:12.184Z,4
2017-12-20T07:11:21.254Z,4
2017-12-20T07:12:30.070Z,8
2017-12-20T07:13:39.300Z,52
2017-12-20T07:14:48.414Z,68
2017-12-20T07:15:57.217Z,80
2017-12-20T07:17:05.752Z,84
2017-12-20T07:18:14.820Z,92
2017-12-20T07:19:23.374Z,92
2017-12-20T07:20:31.888Z,96
2017-12-20T07:21:40.698Z,100
2017-12-20T07:22:50.034Z,104
2017-12-20T07:23:58.569Z,104
2017-12-20T07:25:07.102Z,112
2017-12-20T07:26:15.640Z,112
2017-12-20T07:27:24.325Z,116
2017-12-20T07:28:33.131Z,124
2017-12-20T07:29:41.665Z,132
2017-12-20T07:30:50.199Z,148
2017-12-20T07:31:58.999Z,160
2017-12-20T07:33:08.333Z,168
2017-12-20T07:34:16.868Z,180
2017-12-20T07:35:25.672Z,192
2017-12-20T07:36:34.472Z,208
2017-12-20T07:37:43.274Z,220
2017-12-20T07:38:51.960Z,236
2017-12-20T07:40:00.763Z,248
2017-12-20T07:41:09.589Z,260
2017-12-20T07:42:18.126Z,276
2017-12-20T07:43:26.664Z,288
2017-12-20T07:44:35.463Z,292
2017-12-20T07:45:44.534Z,308
2017-12-20T07:46:53.607Z,340
2017-12-20T07:48:02.408Z,376
2017-12-20T07:49:10.941Z,408
2017-12-20T07:50:20.009Z,444
2017-12-20T07:51:28.813Z,452
2017-12-20T07:52:38.032Z,448
2017-12-20T07:53:47.016Z,456
2017-12-20T07:54:55.833Z,460
2017-12-20T07:56:04.409Z,488
2017-12-20T07:57:13.014Z,520
2017-12-20T07:58:21.821Z,540
2017-12-20T07:59:31.200Z,560
2017-12-20T08:00:40.274Z,584
2017-12-20T08:01:49.938Z,628
2017-12-20T08:02:59.297Z,664
2017-12-20T08:04:08.604Z,704
2017-12-20T08:05:17.973Z,768
2017-12-20T08:06:27.136Z,856
2017-12-20T08:07:36.124Z,892
2017-12-20T08:08:44.925Z,896
2017-12-20T08:09:53.822Z,904
2017-12-20T08:11:03.277Z,924
2017-12-20T08:12:12.060Z,988
2017-12-20T08:13:20.844Z,1132
2017-12-20T08:14:29.779Z,1188
2017-12-20T08:15:38.582Z,1256
2017-12-20T08:16:47.383Z,1228
2017-12-20T08:17:55.920Z,1148
2017-12-20T08:19:04.455Z,1172
2017-12-20T08:20:13.013Z,1176
2017-12-20T08:21:22.392Z,1100
2017-12-20T08:22:31.368Z,1068
2017-12-20T08:23:40.120Z,1088
2017-12-20T08:24:48.654Z,1108
2017-12-20T08:25:57.228Z,1120
2017-12-20T08:27:06.071Z,1132
2017-12-20T08:28:15.501Z,1172
2017-12-20T08:29:24.380Z,1192
2017-12-20T08:30:33.182Z,1200
2017-12-20T08:31:42.254Z,1200
2017-12-20T08:32:51.320Z,1196
2017-12-20T08:34:00.125Z,1180
2017-12-20T08:35:08.672Z,1128
2017-12-20T08:36:17.525Z,1084
2017-12-20T08:37:26.324Z,1088
2017-12-20T08:38:35.524Z,1116
2017-12-20T08:39:44.616Z,1132
2017-12-20T08:40:53.505Z,1160
2017-12-20T08:42:02.420Z,1180
2017-12-20T08:43:11.582Z,1164
2017-12-20T08:44:20.764Z,1208
2017-12-20T08:45:29.891Z,1168
2017-12-20T08:46:38.895Z,1144
2017-12-20T08:47:47.742Z,1100
2017-12-20T08:48:56.761Z,1032
2017-12-20T08:50:06.133Z,976
2017-12-20T08:51:14.926Z,988
2017-12-20T08:52:23.877Z,988
2017-12-20T08:53:32.783Z,940
2017-12-20T08:54:42.061Z,944
2017-12-20T08:55:51.107Z,936
2017-12-20T08:57:00.311Z,884
2017-12-20T08:58:09.949Z,904
2017-12-20T08:59:19.041Z,904
2017-12-20T09:00:28.163Z,916
2017-12-20T09:01:37.204Z,928
2017-12-20T09:02:46.437Z,952
2017-12-20T09:03:55.552Z,1004
2017-12-20T09:05:04.696Z,1092
2017-12-20T09:06:13.515Z,1048
2017-12-20T09:07:23.080Z,1084
2017-12-20T09:08:32.095Z,1108
2017-12-20T09:09:41.006Z,1068
2017-12-20T09:10:50.406Z,1068
2017-12-20T09:11:59.576Z,1080
2017-12-20T09:13:08.792Z,1072
2017-12-20T09:14:18.948Z,1104
2017-12-20T09:15:28.020Z,1096
2017-12-20T09:16:37.146Z,1080
2017-12-20T09:17:46.041Z,1128
2017-12-20T09:18:54.902Z,1244
2017-12-20T09:20:04.136Z,1268
2017-12-20T09:21:12.991Z,1240
2017-12-20T09:22:22.049Z,1296
2017-12-20T09:23:30.979Z,1340
2017-12-20T09:24:40.325Z,1360
2017-12-20T09:25:49.247Z,1400
2017-12-20T09:26:58.364Z,1468
2017-12-20T09:28:07.317Z,1568
2017-12-20T09:29:16.395Z,1612
2017-12-20T09:30:25.371Z,1684
2017-12-20T09:31:34.473Z,1688
2017-12-20T09:32:43.460Z,1612
2017-12-20T09:33:52.382Z,1596
2017-12-20T09:35:01.579Z,1620
2017-12-20T09:36:10.742Z,1684
2017-12-20T09:37:19.646Z,1788
2017-12-20T09:38:28.553Z,1904
2017-12-20T09:39:37.791Z,1936
2017-12-20T09:40:46.997Z,1880
2017-12-20T09:41:56.205Z,1832
2017-12-20T09:43:05.519Z,1816
2017-12-20T09:44:14.755Z,1888
2017-12-20T09:45:24.943Z,1964
2017-12-20T09:46:34.628Z,2060
2017-12-20T09:47:44.129Z,2120
2017-12-20T09:48:53.500Z,2232
2017-12-20T09:50:02.366Z,2512
2017-12-20T09:51:11.302Z,2812
2017-12-20T09:52:20.859Z,3060
2017-12-20T09:53:30.065Z,3036
2017-12-20T09:54:39.020Z,2880
2017-12-20T09:55:48.121Z,2592
2017-12-20T09:56:57.442Z,2268
2017-12-20T09:58:06.306Z,2164
2017-12-20T09:59:15.564Z,2196
2017-12-20T10:00:25.446Z,2296
2017-12-20T10:01:34.816Z,2316
2017-12-20T10:02:44.140Z,2352
2017-12-20T10:03:53.923Z,2356
2017-12-20T10:05:03.283Z,2204
2017-12-20T10:06:12.105Z,1980
2017-12-20T10:07:21.620Z,1928
2017-12-20T10:08:30.822Z,1892
2017-12-20T10:09:40.062Z,1820
2017-12-20T10:10:49.119Z,1880
2017-12-20T10:11:58.176Z,1980
2017-12-20T10:13:07.588Z,2008
2017-12-20T10:14:16.660Z,1952
2017-12-20T10:15:25.628Z,1864
2017-12-20T10:16:35.482Z,1756
2017-12-20T10:17:44.366Z,1824
2017-12-20T10:18:53.561Z,1872
2017-12-20T10:20:03.083Z,1932
2017-12-20T10:21:12.028Z,1952
2017-12-20T10:22:21.221Z,2024
2017-12-20T10:23:30.820Z,2104
2017-12-20T10:24:40.032Z,2276
2017-12-20T10:25:48.895Z,2316
2017-12-20T10:26:58.020Z,2356
2017-12-20T10:28:07.161Z,2580
2017-12-20T10:29:16.701Z,2868
2017-12-20T10:30:25.306Z,3044
2017-12-20T10:31:34.433Z,3008
2017-12-20T10:32:43.029Z,2948
2017-12-20T10:33:51.838Z,2824
2017-12-20T10:35:00.911Z,2612
2017-12-20T10:36:09.447Z,2336
2017-12-20T10:37:18.280Z,2340
2017-12-20T10:38:27.115Z,2468
2017-12-20T10:39:35.658Z,2720
2017-12-20T10:40:44.196Z,2848
2017-12-20T10:41:53.006Z,2904
2017-12-20T10:43:01.745Z,2852
2017-12-20T10:44:10.860Z,2752
2017-12-20T10:45:21.993Z,2924
2017-12-20T10:46:31.844Z,2936
2017-12-20T10:47:40.980Z,2816
2017-12-20T10:48:49.525Z,2800
2017-12-20T10:49:58.272Z,3040
2017-12-20T10:51:07.209Z,2996
2017-12-20T10:52:15.865Z,2908
2017-12-20T10:53:24.678Z,2812
2017-12-20T10:54:34.104Z,2756
2017-12-20T10:55:43.410Z,2744
2017-12-20T10:56:52.296Z,2752
2017-12-20T10:58:01.695Z,2828
2017-12-20T10:59:10.610Z,2988
2017-12-20T11:00:19.521Z,2888
2017-12-20T11:01:28.328Z,2748
2017-12-20T11:02:37.132Z,2808
2017-12-20T11:03:45.932Z,3020
2017-12-20T11:04:54.746Z,2752
2017-12-20T11:06:03.818Z,2368
2017-12-20T11:07:12.350Z,2100
2017-12-20T11:08:20.884Z,2124
2017-12-20T11:09:29.423Z,2436
2017-12-20T11:10:38.227Z,2648
2017-12-20T11:11:47.356Z,2712
2017-12-20T11:12:55.901Z,2632
2017-12-20T11:14:04.699Z,2632
2017-12-20T11:15:13.774Z,2496
2017-12-20T11:16:22.860Z,2508
2017-12-20T11:17:31.931Z,2804
2017-12-20T11:18:40.472Z,2832
2017-12-20T11:19:49.271Z,2848
2017-12-20T11:20:57.804Z,2604
2017-12-20T11:22:06.872Z,2452
2017-12-20T11:23:15.737Z,2584
2017-12-20T11:24:24.738Z,2756
2017-12-20T11:25:33.581Z,2764
2017-12-20T11:26:42.129Z,2720
2017-12-20T11:27:51.466Z,2632
2017-12-20T11:29:00.287Z,2684
2017-12-20T11:30:08.830Z,2788
2017-12-20T11:31:17.648Z,2736
2017-12-20T11:32:26.172Z,2640
2017-12-20T11:33:34.974Z,2672
2017-12-20T11:34:43.917Z,2656
2017-12-20T11:35:52.587Z,2588
2017-12-20T11:37:01.800Z,2592
2017-12-20T11:38:10.869Z,2552
2017-12-20T11:39:19.671Z,2496
2017-12-20T11:40:28.476Z,2552
2017-12-20T11:41:37.546Z,2672
2017-12-20T11:42:46.349Z,2784
2017-12-20T11:43:54.888Z,2616
2017-12-20T11:45:03.420Z,2336
2017-12-20T11:46:12.498Z,2376
2017-12-20T11:47:21.090Z,2484
2017-12-20T11:48:29.900Z,2536
2017-12-20T11:49:38.721Z,2528
2017-12-20T11:50:47.518Z,2524
2017-12-20T11:51:56.855Z,2448
2017-12-20T11:53:05.944Z,2356
2017-12-20T11:54:14.754Z,2212
2017-12-20T11:55:23.583Z,2244
2017-12-20T11:56:32.435Z,2292
2017-12-20T11:57:41.245Z,2476
2017-12-20T11:58:49.783Z,2456
2017-12-20T11:59:58.852Z,2524
2017-12-20T12:01:07.660Z,2684
2017-12-20T12:02:16.780Z,2732
2017-12-20T12:03:25.320Z,2660
2017-12-20T12:04:34.125Z,2496
2017-12-20T12:05:42.929Z,2532
2017-12-20T12:06:51.464Z,2224
2017-12-20T12:08:00.533Z,2124
2017-12-20T12:09:10.495Z,2044
2017-12-20T12:10:19.997Z,2008
2017-12-20T12:11:29.063Z,1768
2017-12-20T12:12:38.137Z,1852
2017-12-20T12:13:46.988Z,1748
2017-12-20T12:14:55.568Z,1744
2017-12-20T12:16:04.370Z,1796
2017-12-20T12:17:12.908Z,1852
2017-12-20T12:18:21.443Z,1820
2017-12-20T12:19:30.856Z,1816
2017-12-20T12:20:40.545Z,1720
2017-12-20T12:21:49.452Z,2016
2017-12-20T12:22:58.527Z,2284
2017-12-20T12:24:07.331Z,2520
2017-12-20T12:25:16.448Z,2312
2017-12-20T12:26:25.269Z,2128
2017-12-20T12:27:34.071Z,2436
2017-12-20T12:28:42.873Z,2288
2017-12-20T12:29:51.678Z,2160
2017-12-20T12:31:01.011Z,2124
2017-12-20T12:32:09.546Z,1976
2017-12-20T12:33:18.344Z,2184
2017-12-20T12:34:27.145Z,2340
2017-12-20T12:35:36.487Z,2200
2017-12-20T12:36:47.130Z,2404
2017-12-20T12:37:55.677Z,3132
2017-12-20T12:39:04.481Z,2980
2017-12-20T12:40:13.017Z,2868
2017-12-20T12:41:21.852Z,3288
2017-12-20T12:42:30.656Z,3368
2017-12-20T12:43:39.734Z,3416
2017-12-20T12:44:48.540Z,3428
2017-12-20T12:45:57.079Z,3524
2017-12-20T12:47:05.882Z,3444
2017-12-20T12:48:14.999Z,3540
2017-12-20T12:49:24.009Z,3512
2017-12-20T12:50:32.725Z,3548
2017-12-20T12:51:41.566Z,3588
2017-12-20T12:52:50.746Z,3636
2017-12-20T12:53:59.617Z,3732
2017-12-20T12:55:09.092Z,3736
2017-12-20T12:56:18.050Z,3484
2017-12-20T12:57:26.586Z,3328
2017-12-20T12:58:35.392Z,3584
2017-12-20T12:59:45.623Z,3432
2017-12-20T13:00:54.713Z,3204
2017-12-20T13:02:03.788Z,3104
2017-12-20T13:03:12.896Z,2936
2017-12-20T13:04:21.580Z,2988
2017-12-20T13:05:30.324Z,2984
2017-12-20T13:06:38.993Z,2632
2017-12-20T13:07:48.438Z,2248
2017-12-20T13:08:57.694Z,2164
2017-12-20T13:10:07.255Z,2580
2017-12-20T13:11:46.854Z,2584
2017-12-20T13:12:56.537Z,2264
2017-12-20T13:14:05.488Z,2224
2017-12-20T13:15:14.049Z,2232
2017-12-20T13:16:22.850Z,2248
2017-12-20T13:17:31.382Z,2260
2017-12-20T13:18:40.180Z,2164
2017-12-20T13:19:48.985Z,2084
2017-12-20T13:20:58.056Z,2276
2017-12-20T13:22:06.861Z,2228
2017-12-20T13:23:15.396Z,2136
2017-12-20T13:24:23.935Z,1992
2017-12-20T13:25:33.002Z,1880
2017-12-20T13:26:41.806Z,1664
2017-12-20T13:27:50.605Z,1624
2017-12-20T13:28:59.138Z,1932
2017-12-20T13:30:07.938Z,2264
2017-12-20T13:31:16.483Z,2428
2017-12-20T13:32:25.608Z,2320
2017-12-20T13:33:34.410Z,2068
2017-12-20T13:34:43.217Z,2024
2017-12-20T13:35:52.060Z,2048
2017-12-20T13:37:01.136Z,2264
2017-12-20T13:38:09.957Z,2264
2017-12-20T13:39:18.494Z,1888
2017-12-20T13:40:27.040Z,1564
2017-12-20T13:41:35.584Z,1584
2017-12-20T13:42:44.654Z,1644
2017-12-20T13:43:53.772Z,1788
2017-12-20T13:45:02.584Z,1848
2017-12-20T13:46:11.395Z,1876
2017-12-20T13:47:20.012Z,1920
2017-12-20T13:48:28.513Z,1944
2017-12-20T13:49:37.632Z,1680
2017-12-20T13:50:46.704Z,1660
2017-12-20T13:51:55.510Z,1608
2017-12-20T13:53:04.711Z,1680
2017-12-20T13:54:13.511Z,1560
2017-12-20T13:55:22.098Z,1424
2017-12-20T13:56:30.704Z,1240
2017-12-20T13:57:39.389Z,1180
2017-12-20T13:58:47.946Z,1276
2017-12-20T13:59:57.034Z,1316
2017-12-20T14:01:05.837Z,1260
2017-12-20T14:02:14.434Z,1268
2017-12-20T14:03:23.225Z,1212
2017-12-20T14:04:32.326Z,1136
2017-12-20T14:05:41.130Z,1244
2017-12-20T14:06:49.937Z,1352
2017-12-20T14:07:58.773Z,1212
2017-12-20T14:09:07.869Z,1280
2017-12-20T14:10:16.961Z,1208
2017-12-20T14:11:25.496Z,1080
2017-12-20T14:12:34.350Z,1140
2017-12-20T14:13:43.137Z,1156
2017-12-20T14:14:52.210Z,1240
2017-12-20T14:16:32.816Z,1304
2017-12-20T14:17:41.616Z,1336
2017-12-20T14:18:50.431Z,1360
2017-12-20T14:19:58.980Z,1460
2017-12-20T14:21:07.791Z,1380
2017-12-20T14:22:16.917Z,1288
2017-12-20T14:23:25.995Z,1332
2017-12-20T14:24:34.704Z,1208
2017-12-20T14:25:43.626Z,1136
2017-12-20T14:26:52.172Z,1028
2017-12-20T14:28:00.719Z,916
2017-12-20T14:29:09.846Z,904
2017-12-20T14:30:18.651Z,888
2017-12-20T14:31:27.453Z,880
2017-12-20T14:32:36.257Z,872
2017-12-20T14:33:45.134Z,884
2017-12-20T14:34:53.670Z,884
2017-12-20T14:36:02.473Z,844
2017-12-20T14:37:11.008Z,860
2017-12-20T14:38:19.544Z,856
2017-12-20T14:39:28.350Z,844
2017-12-20T14:40:37.420Z,868
2017-12-20T14:41:45.956Z,868
2017-12-20T14:42:54.495Z,924
2017-12-20T14:44:03.045Z,900
2017-12-20T14:45:11.897Z,796
2017-12-20T14:46:21.232Z,752
2017-12-20T14:47:30.301Z,812
2017-12-20T14:48:38.838Z,824
2017-12-20T14:49:47.643Z,796
2017-12-20T14:50:56.445Z,836
2017-12-20T14:52:05.030Z,796
2017-12-20T14:53:13.569Z,736
2017-12-20T14:54:22.370Z,664
2017-12-20T14:55:31.439Z,600
2017-12-20T14:56:40.294Z,600
2017-12-20T14:57:49.096Z,596
2017-12-20T14:58:58.162Z,624
2017-12-20T15:00:07.231Z,596
2017-12-20T15:01:16.094Z,556
2017-12-20T15:02:24.633Z,544
2017-12-20T15:03:33.436Z,576
2017-12-20T15:04:42.152Z,600
2017-12-20T15:05:51.225Z,604
2017-12-20T15:06:59.777Z,592
2017-12-20T15:08:08.350Z,552
2017-12-20T15:09:17.462Z,484
2017-12-20T15:10:26.263Z,444
2017-12-20T15:11:35.705Z,396
2017-12-20T15:12:44.914Z,368
2017-12-20T15:13:56.852Z,340
2017-12-20T15:15:07.313Z,344
2017-12-20T15:16:16.452Z,320
2017-12-20T15:17:25.687Z,304
2017-12-20T15:18:36.476Z,304
2017-12-20T15:19:45.533Z,288
2017-12-20T15:20:54.871Z,280
2017-12-20T15:22:03.752Z,244
2017-12-20T15:23:12.291Z,216
2017-12-20T15:24:20.825Z,200
2017-12-20T15:25:29.675Z,200
2017-12-20T15:26:38.749Z,192
2017-12-20T15:27:47.825Z,180
2017-12-20T15:28:56.365Z,172
2017-12-20T15:30:05.710Z,164
2017-12-20T15:31:14.517Z,152
2017-12-20T15:32:23.885Z,148
2017-12-20T15:33:32.422Z,136
2017-12-20T15:34:41.765Z,136
2017-12-20T15:35:50.303Z,124
2017-12-20T15:36:59.426Z,116
2017-12-20T15:38:08.551Z,112
2017-12-20T15:39:17.457Z,104
2017-12-20T15:40:25.992Z,104
2017-12-20T15:41:34.792Z,100
2017-12-20T15:42:43.640Z,96
2017-12-20T15:43:52.440Z,92
2017-12-20T15:45:01.282Z,92
2017-12-20T15:46:10.084Z,92
2017-12-20T15:47:18.621Z,88
2017-12-20T15:48:27.474Z,84
2017-12-20T15:49:36.009Z,84
2017-12-20T15:50:45.085Z,80
2017-12-20T15:51:53.888Z,76
2017-12-20T15:53:02.745Z,80
2017-12-20T15:54:11.267Z,80
2017-12-20T15:55:19.807Z,80
2017-12-20T15:56:28.623Z,76
2017-12-20T15:57:37.433Z,76
2017-12-20T15:58:45.987Z,76
2017-12-20T15:59:55.109Z,80
2017-12-20T16:01:03.914Z,76
2017-12-20T16:02:13.005Z,76
2017-12-20T16:03:21.809Z,76
2017-12-20T16:04:30.910Z,76
2017-12-20T16:05:39.447Z,76
2017-12-20T16:06:48.252Z,76
2017-12-20T16:07:57.380Z,76